sensor_id;sensor_type;location;lat;lon;timestamp;P1;P4;P2;P0;N10;N4;N25;N1;N05;TS
79462;SPS30;68931;47.286;18.756;2024-03-23T00:52:18;0.00;0.00;0.00;0.00;;;;35.33;1.00;
79462;SPS30;68931;47.286;18.756;2024-03-23T00:53:20;0.00;0.00;0.00;0.00;;;;35.00;1.00;
79462;SPS30;68931;47.286;18.756;2024-03-23T00:53:51;0.00;0.00;0.00;0.00;;;;34.00;1.00;
79462;SPS30;68931;47.286;18.756;2024-03-23T00:54:22;0.00;0.00;0.00;0.00;;;;33.67;1.00;
79462;SPS30;68931;47.286;18.756;2024-03-23T00:54:53;0.00;0.00;0.00;0.00;;;;33.00;1.00;
79462;SPS30;68931;47.286;18.756;2024-03-23T00:55:24;0.00;0.00;0.00;0.00;;;;32.33;1.00;
79462;SPS30;68931;47.286;18.756;2024-03-23T00:55:55;0.00;0.00;0.00;0.00;;;;32.00;1.00;
79462;SPS30;68931;47.286;18.756;2024-03-23T00:56:25;0.00;0.00;0.00;0.00;;;;32.00;1.00;
79462;SPS30;68931;47.286;18.756;2024-03-23T00:56:59;0.00;0.00;0.00;0.00;;;;31.33;1.00;
79462;SPS30;68931;47.286;18.756;2024-03-23T00:57:33;0.00;0.00;0.00;0.00;;;;31.00;1.00;
79462;SPS30;68931;47.286;18.756;2024-03-23T00:58:04;0.00;0.00;0.00;0.00;;;;31.00;1.00;
79462;SPS30;68931;47.286;18.756;2024-03-23T00:58:34;0.00;0.00;0.00;0.00;;;;31.00;1.00;
79462;SPS30;68931;47.286;18.756;2024-03-23T00:59:05;0.00;0.00;0.00;0.00;;;;31.00;1.00;
79462;SPS30;68931;47.286;18.756;2024-03-23T00:59:36;0.00;0.00;0.00;0.00;;;;31.00;1.00;
79462;SPS30;68931;47.286;18.756;2024-03-23T01:00:13;0.00;0.00;0.00;0.00;;;;32.00;1.00;
79462;SPS30;68931;47.286;18.756;2024-03-23T01:00:44;0.00;0.00;0.00;0.00;;;;32.00;1.00;
79462;SPS30;68931;47.286;18.756;2024-03-23T01:01:15;0.00;0.00;0.00;0.00;;;;33.00;1.00;
79462;SPS30;68931;47.286;18.756;2024-03-23T01:01:46;0.00;0.00;0.00;0.00;;;;35.00;1.00;
79462;SPS30;68931;47.286;18.756;2024-03-23T01:02:17;0.00;0.00;0.00;0.00;;;;36.00;1.00;
79462;SPS30;68931;47.286;18.756;2024-03-23T01:02:48;0.00;0.00;0.00;0.00;;;;36.33;1.00;
79462;SPS30;68931;47.286;18.756;2024-03-23T01:03:18;0.00;0.00;0.00;0.00;;;;38.67;1.00;
79462;SPS30;68931;47.286;18.756;2024-03-23T01:03:49;0.00;0.00;0.00;0.00;;;;40.00;1.00;
79462;SPS30;68931;47.286;18.756;2024-03-23T01:04:20;0.00;0.00;0.00;0.00;;;;40.00;1.00;
79462;SPS30;68931;47.286;18.756;2024-03-23T01:04:51;0.00;0.00;0.00;0.00;;;;40.00;1.00;
79462;SPS30;68931;47.286;18.756;2024-03-23T01:05:22;0.00;0.00;0.00;0.00;;;;40.00;1.00;
79462;SPS30;68931;47.286;18.756;2024-03-23T01:05:53;0.00;0.00;0.00;0.00;;;;40.00;1.00;
79462;SPS30;68931;47.286;18.756;2024-03-23T01:06:24;0.00;0.00;0.00;0.00;;;;39.33;1.00;
79462;SPS30;68931;47.286;18.756;2024-03-23T01:06:55;0.00;0.00;0.00;0.00;;;;39.33;1.00;
79462;SPS30;68931;47.286;18.756;2024-03-23T01:07:26;0.00;0.00;0.00;0.00;;;;39.00;1.00;
79462;SPS30;68931;47.286;18.756;2024-03-23T01:07:57;0.00;0.00;0.00;0.00;;;;39.00;1.00;
79462;SPS30;68931;47.286;18.756;2024-03-23T01:08:27;0.00;0.00;0.00;0.00;;;;39.00;1.00;
79462;SPS30;68931;47.286;18.756;2024-03-23T01:09:01;0.00;0.00;0.00;0.00;;;;38.33;1.00;
79462;SPS30;68931;47.286;18.756;2024-03-23T01:09:32;0.00;0.00;0.00;0.00;;;;38.00;1.00;
79462;SPS30;68931;47.286;18.756;2024-03-23T01:10:03;0.00;0.00;0.00;0.00;;;;38.00;1.00;
79462;SPS30;68931;47.286;18.756;2024-03-23T01:10:34;0.00;0.00;0.00;0.00;;;;37.33;1.00;
79462;SPS30;68931;47.286;18.756;2024-03-23T01:11:05;0.00;0.00;0.00;0.00;;;;36.33;1.00;
79462;SPS30;68931;47.286;18.756;2024-03-23T01:11:36;0.00;0.00;0.00;0.00;;;;36.00;1.00;
79462;SPS30;68931;47.286;18.756;2024-03-23T01:12:07;0.00;0.00;0.00;0.00;;;;35.00;1.00;
79462;SPS30;68931;47.286;18.756;2024-03-23T01:12:38;0.00;0.00;0.00;0.00;;;;34.00;1.00;
79462;SPS30;68931;47.286;18.756;2024-03-23T01:13:09;0.00;0.00;0.00;0.00;;;;33.00;1.00;
79462;SPS30;68931;47.286;18.756;2024-03-23T01:13:40;0.00;0.00;0.00;0.00;;;;32.33;1.00;
79462;SPS30;68931;47.286;18.756;2024-03-23T01:14:11;0.00;0.00;0.00;0.00;;;;31.67;1.00;
79462;SPS30;68931;47.286;18.756;2024-03-23T01:14:42;0.00;0.00;0.00;0.00;;;;31.00;1.00;
79462;SPS30;68931;47.286;18.756;2024-03-23T01:15:18;0.00;0.00;0.00;0.00;;;;31.00;1.00;
79462;SPS30;68931;47.286;18.756;2024-03-23T01:15:50;0.00;0.00;0.00;0.00;;;;30.00;1.00;
79462;SPS30;68931;47.286;18.756;2024-03-23T01:16:24;0.00;0.00;0.00;0.00;;;;30.00;1.00;
79462;SPS30;68931;47.286;18.756;2024-03-23T01:16:54;0.00;0.00;0.00;0.00;;;;29.33;1.00;
79462;SPS30;68931;47.286;18.756;2024-03-23T01:17:25;0.00;0.00;0.00;0.00;;;;29.33;1.00;
79462;SPS30;68931;47.286;18.756;2024-03-23T01:17:56;0.00;0.00;0.00;0.00;;;;30.00;1.00;
79462;SPS30;68931;47.286;18.756;2024-03-23T01:18:27;0.00;0.00;0.00;0.00;;;;29.33;1.00;
79462;SPS30;68931;47.286;18.756;2024-03-23T01:18:58;0.00;0.00;0.00;0.00;;;;29.00;1.00;
79462;SPS30;68931;47.286;18.756;2024-03-23T01:19:29;0.00;0.00;0.00;0.00;;;;29.00;1.00;
79462;SPS30;68931;47.286;18.756;2024-03-23T01:20:00;0.00;0.00;0.00;0.00;;;;29.67;1.00;
79462;SPS30;68931;47.286;18.756;2024-03-23T01:20:31;0.00;0.00;0.00;0.00;;;;30.00;1.00;
79462;SPS30;68931;47.286;18.756;2024-03-23T01:21:02;0.00;0.00;0.00;0.00;;;;29.33;1.00;
79462;SPS30;68931;47.286;18.756;2024-03-23T01:21:33;0.00;0.00;0.00;0.00;;;;29.67;1.00;
79462;SPS30;68931;47.286;18.756;2024-03-23T01:22:03;0.00;0.00;0.00;0.00;;;;29.00;1.00;
79462;SPS30;68931;47.286;18.756;2024-03-23T01:22:34;0.00;0.00;0.00;0.00;;;;29.00;1.00;
79462;SPS30;68931;47.286;18.756;2024-03-23T01:23:08;0.00;0.00;0.00;0.00;;;;28.00;1.00;
79462;SPS30;68931;47.286;18.756;2024-03-23T01:23:39;0.00;0.00;0.00;0.00;;;;28.67;1.00;
79462;SPS30;68931;47.286;18.756;2024-03-23T01:24:10;0.00;0.00;0.00;0.00;;;;28.00;1.00;
79462;SPS30;68931;47.286;18.756;2024-03-23T01:24:41;0.00;0.00;0.00;0.00;;;;28.00;1.00;
79462;SPS30;68931;47.286;18.756;2024-03-23T01:25:12;0.00;0.00;0.00;0.00;;;;28.00;1.00;
79462;SPS30;68931;47.286;18.756;2024-03-23T01:25:42;0.00;0.00;0.00;0.00;;;;28.00;1.00;
79462;SPS30;68931;47.286;18.756;2024-03-23T01:26:13;0.00;0.00;0.00;0.00;;;;28.00;1.00;
79462;SPS30;68931;47.286;18.756;2024-03-23T01:26:45;0.00;0.00;0.00;0.00;;;;28.00;1.00;
79462;SPS30;68931;47.286;18.756;2024-03-23T01:27:16;0.00;0.00;0.00;0.00;;;;28.00;1.00;
79462;SPS30;68931;47.286;18.756;2024-03-23T01:27:46;0.00;0.00;0.00;0.00;;;;28.00;1.00;
79462;SPS30;68931;47.286;18.756;2024-03-23T01:28:17;0.00;0.00;0.00;0.00;;;;27.00;1.00;
79462;SPS30;68931;47.286;18.756;2024-03-23T01:28:48;0.00;0.00;0.00;0.00;;;;27.00;1.00;
79462;SPS30;68931;47.286;18.756;2024-03-23T01:29:19;0.00;0.00;0.00;0.00;;;;27.00;1.00;
79462;SPS30;68931;47.286;18.756;2024-03-23T01:29:50;0.00;0.00;0.00;0.00;;;;26.33;1.00;
79462;SPS30;68931;47.286;18.756;2024-03-23T01:30:22;0.00;0.00;0.00;0.00;;;;25.00;1.00;
79462;SPS30;68931;47.286;18.756;2024-03-23T01:30:53;0.00;0.00;0.00;0.00;;;;25.00;1.00;
79462;SPS30;68931;47.286;18.756;2024-03-23T01:31:24;0.00;0.00;0.00;0.00;;;;24.33;1.00;
79462;SPS30;68931;47.286;18.756;2024-03-23T01:31:55;0.00;0.00;0.00;0.00;;;;23.33;1.00;
79462;SPS30;68931;47.286;18.756;2024-03-23T01:32:26;0.00;0.00;0.00;0.00;;;;22.67;1.00;
79462;SPS30;68931;47.286;18.756;2024-03-23T01:32:56;0.00;0.00;0.00;0.00;;;;22.00;1.00;
79462;SPS30;68931;47.286;18.756;2024-03-23T01:33:27;0.00;0.00;0.00;0.00;;;;22.00;1.00;
79462;SPS30;68931;47.286;18.756;2024-03-23T01:33:58;0.00;0.00;0.00;0.00;;;;21.00;1.00;
79462;SPS30;68931;47.286;18.756;2024-03-23T01:34:29;0.00;0.00;0.00;0.00;;;;21.00;1.00;
79462;SPS30;68931;47.286;18.756;2024-03-23T01:35:00;0.00;0.00;0.00;0.00;;;;21.00;1.00;
79462;SPS30;68931;47.286;18.756;2024-03-23T01:35:31;0.00;0.00;0.00;0.00;;;;20.33;1.00;
79462;SPS30;68931;47.286;18.756;2024-03-23T01:36:02;0.00;0.00;0.00;0.00;;;;20.00;1.00;
79462;SPS30;68931;47.286;18.756;2024-03-23T01:36:33;0.00;0.00;0.00;0.00;;;;20.00;1.00;
79462;SPS30;68931;47.286;18.756;2024-03-23T01:37:04;0.00;0.00;0.00;0.00;;;;20.00;1.00;
79462;SPS30;68931;47.286;18.756;2024-03-23T01:37:35;0.00;0.00;0.00;0.00;;;;19.33;1.00;
79462;SPS30;68931;47.286;18.756;2024-03-23T01:38:05;0.00;0.00;0.00;0.00;;;;19.00;1.00;
79462;SPS30;68931;47.286;18.756;2024-03-23T01:38:36;0.00;0.00;0.00;0.00;;;;19.00;1.00;
79462;SPS30;68931;47.286;18.756;2024-03-23T01:39:07;0.00;0.00;0.00;0.00;;;;19.00;1.00;
79462;SPS30;68931;47.286;18.756;2024-03-23T01:39:39;0.00;0.00;0.00;0.00;;;;19.00;1.00;
79462;SPS30;68931;47.286;18.756;2024-03-23T01:40:10;0.00;0.00;0.00;0.00;;;;19.00;1.00;
79462;SPS30;68931;47.286;18.756;2024-03-23T01:40:43;0.00;0.00;0.00;0.00;;;;19.00;1.00;
79462;SPS30;68931;47.286;18.756;2024-03-23T01:41:14;0.00;0.00;0.00;0.00;;;;19.00;1.00;
79462;SPS30;68931;47.286;18.756;2024-03-23T01:41:45;0.00;0.00;0.00;0.00;;;;19.00;1.00;
79462;SPS30;68931;47.286;18.756;2024-03-23T01:42:17;0.00;0.00;0.00;0.00;;;;19.00;1.00;
79462;SPS30;68931;47.286;18.756;2024-03-23T01:42:57;0.00;0.00;0.00;0.00;;;;19.00;1.00;
79462;SPS30;68931;47.286;18.756;2024-03-23T01:43:32;0.00;0.00;0.00;0.00;;;;19.00;1.00;
79462;SPS30;68931;47.286;18.756;2024-03-23T01:44:04;0.00;0.00;0.00;0.00;;;;19.00;1.00;
79462;SPS30;68931;47.286;18.756;2024-03-23T01:44:39;0.00;0.00;0.00;0.00;;;;19.00;1.00;
79462;SPS30;68931;47.286;18.756;2024-03-23T01:45:10;0.00;0.00;0.00;0.00;;;;19.00;1.00;
79462;SPS30;68931;47.286;18.756;2024-03-23T01:45:41;0.00;0.00;0.00;0.00;;;;19.00;1.00;
79462;SPS30;68931;47.286;18.756;2024-03-23T01:46:12;0.00;0.00;0.00;0.00;;;;19.00;1.00;
79462;SPS30;68931;47.286;18.756;2024-03-23T01:46:44;0.00;0.00;0.00;0.00;;;;19.67;1.00;
79462;SPS30;68931;47.286;18.756;2024-03-23T01:47:15;0.00;0.00;0.00;0.00;;;;20.00;1.00;
79462;SPS30;68931;47.286;18.756;2024-03-23T01:47:45;0.00;0.00;0.00;0.00;;;;20.67;1.00;
79462;SPS30;68931;47.286;18.756;2024-03-23T01:48:16;0.00;0.00;0.00;0.00;;;;21.00;1.00;
79462;SPS30;68931;47.286;18.756;2024-03-23T01:48:47;0.00;0.00;0.00;0.00;;;;21.00;1.00;
79462;SPS30;68931;47.286;18.756;2024-03-23T01:49:19;0.00;0.00;0.00;0.00;;;;21.00;1.00;
79462;SPS30;68931;47.286;18.756;2024-03-23T01:49:51;0.00;0.00;0.00;0.00;;;;21.00;1.00;
79462;SPS30;68931;47.286;18.756;2024-03-23T01:50:22;0.00;0.00;0.00;0.00;;;;21.67;1.00;
79462;SPS30;68931;47.286;18.756;2024-03-23T01:50:56;0.00;0.00;0.00;0.00;;;;22.67;1.00;
79462;SPS30;68931;47.286;18.756;2024-03-23T01:51:27;0.00;0.00;0.00;0.00;;;;23.00;1.00;
79462;SPS30;68931;47.286;18.756;2024-03-23T01:51:59;0.00;0.00;0.00;0.00;;;;23.00;1.00;
79462;SPS30;68931;47.286;18.756;2024-03-23T01:52:30;0.00;0.00;0.00;0.00;;;;23.00;1.00;
79462;SPS30;68931;47.286;18.756;2024-03-23T01:53:02;0.00;0.00;0.00;0.00;;;;23.67;1.00;
79462;SPS30;68931;47.286;18.756;2024-03-23T01:53:33;0.00;0.00;0.00;0.00;;;;24.00;1.00;
79462;SPS30;68931;47.286;18.756;2024-03-23T01:54:04;0.00;0.00;0.00;0.00;;;;24.00;1.00;
79462;SPS30;68931;47.286;18.756;2024-03-23T01:54:37;0.00;0.00;0.00;0.00;;;;24.33;1.00;
79462;SPS30;68931;47.286;18.756;2024-03-23T01:55:09;0.00;0.00;0.00;0.00;;;;25.00;1.00;
79462;SPS30;68931;47.286;18.756;2024-03-23T01:55:40;0.00;0.00;0.00;0.00;;;;25.00;1.00;
79462;SPS30;68931;47.286;18.756;2024-03-23T01:56:11;0.00;0.00;0.00;0.00;;;;25.00;1.00;
79462;SPS30;68931;47.286;18.756;2024-03-23T01:56:43;0.00;0.00;0.00;0.00;;;;25.00;1.00;
79462;SPS30;68931;47.286;18.756;2024-03-23T01:57:14;0.00;0.00;0.00;0.00;;;;25.00;1.00;
79462;SPS30;68931;47.286;18.756;2024-03-23T01:57:45;0.00;0.00;0.00;0.00;;;;25.00;1.00;
79462;SPS30;68931;47.286;18.756;2024-03-23T01:58:17;0.00;0.00;0.00;0.00;;;;25.00;1.00;
79462;SPS30;68931;47.286;18.756;2024-03-23T01:58:50;0.00;0.00;0.00;0.00;;;;25.00;1.00;
79462;SPS30;68931;47.286;18.756;2024-03-23T01:59:21;0.00;0.00;0.00;0.00;;;;25.00;1.00;
79462;SPS30;68931;47.286;18.756;2024-03-23T01:59:52;0.00;0.00;0.00;0.00;;;;25.00;1.00;
79462;SPS30;68931;47.286;18.756;2024-03-23T02:00:24;0.00;0.00;0.00;0.00;;;;25.00;1.00;
79462;SPS30;68931;47.286;18.756;2024-03-23T02:00:56;0.00;0.00;0.00;0.00;;;;25.00;1.00;
79462;SPS30;68931;47.286;18.756;2024-03-23T02:01:28;0.00;0.00;0.00;0.00;;;;25.33;1.00;
79462;SPS30;68931;47.286;18.756;2024-03-23T02:01:59;0.00;0.00;0.00;0.00;;;;26.00;1.00;
79462;SPS30;68931;47.286;18.756;2024-03-23T02:02:30;0.00;0.00;0.00;0.00;;;;26.00;1.00;
79462;SPS30;68931;47.286;18.756;2024-03-23T02:03:01;0.00;0.00;0.00;0.00;;;;26.00;1.00;
79462;SPS30;68931;47.286;18.756;2024-03-23T02:03:32;0.00;0.00;0.00;0.00;;;;26.00;1.00;
79462;SPS30;68931;47.286;18.756;2024-03-23T02:04:03;0.00;0.00;0.00;0.00;;;;26.33;1.00;
79462;SPS30;68931;47.286;18.756;2024-03-23T02:04:34;0.00;0.00;0.00;0.00;;;;27.00;1.00;
79462;SPS30;68931;47.286;18.756;2024-03-23T02:05:04;0.00;0.00;0.00;0.00;;;;27.33;1.00;
79462;SPS30;68931;47.286;18.756;2024-03-23T02:05:36;0.00;0.00;0.00;0.00;;;;27.67;1.00;
79462;SPS30;68931;47.286;18.756;2024-03-23T02:06:07;0.00;0.00;0.00;0.00;;;;27.33;1.00;
79462;SPS30;68931;47.286;18.756;2024-03-23T02:06:39;0.00;0.00;0.00;0.00;;;;27.00;1.00;
79462;SPS30;68931;47.286;18.756;2024-03-23T02:07:10;0.00;0.00;0.00;0.00;;;;27.00;1.00;
79462;SPS30;68931;47.286;18.756;2024-03-23T02:07:41;0.00;0.00;0.00;0.00;;;;27.00;1.00;
79462;SPS30;68931;47.286;18.756;2024-03-23T02:08:13;0.00;0.00;0.00;0.00;;;;27.00;1.00;
79462;SPS30;68931;47.286;18.756;2024-03-23T02:08:44;0.00;0.00;0.00;0.00;;;;27.00;1.00;
79462;SPS30;68931;47.286;18.756;2024-03-23T02:09:15;0.00;0.00;0.00;0.00;;;;26.33;1.00;
79462;SPS30;68931;47.286;18.756;2024-03-23T02:09:46;0.00;0.00;0.00;0.00;;;;26.00;1.00;
79462;SPS30;68931;47.286;18.756;2024-03-23T02:10:17;0.00;0.00;0.00;0.00;;;;26.00;1.00;
79462;SPS30;68931;47.286;18.756;2024-03-23T02:10:48;0.00;0.00;0.00;0.00;;;;26.67;1.00;
79462;SPS30;68931;47.286;18.756;2024-03-23T02:11:20;0.00;0.00;0.00;0.00;;;;34.00;1.00;
79462;SPS30;68931;47.286;18.756;2024-03-23T02:11:51;0.00;0.00;0.00;0.00;;;;36.33;1.00;
79462;SPS30;68931;47.286;18.756;2024-03-23T02:12:22;0.00;0.00;0.00;0.00;;;;35.33;1.00;
79462;SPS30;68931;47.286;18.756;2024-03-23T02:12:53;0.00;0.00;0.00;0.00;;;;35.00;1.00;
79462;SPS30;68931;47.286;18.756;2024-03-23T02:13:24;0.00;0.00;0.00;0.00;;;;35.00;1.00;
79462;SPS30;68931;47.286;18.756;2024-03-23T02:13:55;0.00;0.00;0.00;0.00;;;;35.67;1.00;
79462;SPS30;68931;47.286;18.756;2024-03-23T02:14:26;0.00;0.00;0.00;0.00;;;;43.33;1.00;
79462;SPS30;68931;47.286;18.756;2024-03-23T02:14:57;0.00;0.00;0.00;0.00;;;;67.67;1.00;
79462;SPS30;68931;47.286;18.756;2024-03-23T02:15:27;0.00;0.00;0.00;0.00;;;;92.33;1.00;
79462;SPS30;68931;47.286;18.756;2024-03-23T02:15:58;0.00;0.00;0.00;0.00;;;;86.33;1.00;
79462;SPS30;68931;47.286;18.756;2024-03-23T02:16:29;0.00;0.00;0.00;0.00;;;;83.00;1.00;
79462;SPS30;68931;47.286;18.756;2024-03-23T02:17:00;0.00;0.00;0.00;0.00;;;;76.00;1.00;
79462;SPS30;68931;47.286;18.756;2024-03-23T02:17:33;0.00;0.00;0.00;0.00;;;;62.67;1.00;
79462;SPS30;68931;47.286;18.756;2024-03-23T02:18:06;0.00;0.00;0.00;0.00;;;;58.33;1.00;
79462;SPS30;68931;47.286;18.756;2024-03-23T02:18:39;0.00;0.00;0.00;0.00;;;;56.00;1.00;
79462;SPS30;68931;47.286;18.756;2024-03-23T02:19:12;0.00;0.00;0.00;0.00;;;;54.33;1.00;
79462;SPS30;68931;47.286;18.756;2024-03-23T02:19:43;0.00;0.00;0.00;0.00;;;;52.33;1.00;
79462;SPS30;68931;47.286;18.756;2024-03-23T02:20:14;0.00;0.00;0.00;0.00;;;;49.33;1.00;
79462;SPS30;68931;47.286;18.756;2024-03-23T02:20:45;0.00;0.00;0.00;0.00;;;;45.33;1.00;
79462;SPS30;68931;47.286;18.756;2024-03-23T02:21:15;0.00;0.00;0.00;0.00;;;;43.33;1.00;
79462;SPS30;68931;47.286;18.756;2024-03-23T02:21:46;0.00;0.00;0.00;0.00;;;;40.33;1.00;
79462;SPS30;68931;47.286;18.756;2024-03-23T02:22:17;0.00;0.00;0.00;0.00;;;;36.00;1.00;
79462;SPS30;68931;47.286;18.756;2024-03-23T02:22:51;0.00;0.00;0.00;0.00;;;;33.67;1.00;
79462;SPS30;68931;47.286;18.756;2024-03-23T02:23:23;0.00;0.00;0.00;0.00;;;;32.00;1.00;
79462;SPS30;68931;47.286;18.756;2024-03-23T02:23:55;0.00;0.00;0.00;0.00;;;;30.67;1.00;
79462;SPS30;68931;47.286;18.756;2024-03-23T02:24:25;0.00;0.00;0.00;0.00;;;;28.00;1.00;
79462;SPS30;68931;47.286;18.756;2024-03-23T02:24:56;0.00;0.00;0.00;0.00;;;;27.00;1.00;
79462;SPS30;68931;47.286;18.756;2024-03-23T02:25:27;0.00;0.00;0.00;0.00;;;;26.33;1.00;
79462;SPS30;68931;47.286;18.756;2024-03-23T02:25:58;0.00;0.00;0.00;0.00;;;;25.67;1.00;
79462;SPS30;68931;47.286;18.756;2024-03-23T02:26:29;0.00;0.00;0.00;0.00;;;;24.67;1.00;
79462;SPS30;68931;47.286;18.756;2024-03-23T02:27:00;0.00;0.00;0.00;0.00;;;;23.33;1.00;
79462;SPS30;68931;47.286;18.756;2024-03-23T02:27:32;0.00;0.00;0.00;0.00;;;;23.00;1.00;
79462;SPS30;68931;47.286;18.756;2024-03-23T02:28:05;0.00;0.00;0.00;0.00;;;;22.67;1.00;
79462;SPS30;68931;47.286;18.756;2024-03-23T02:28:36;0.00;0.00;0.00;0.00;;;;23.00;1.00;
79462;SPS30;68931;47.286;18.756;2024-03-23T02:29:06;0.00;0.00;0.00;0.00;;;;23.00;1.00;
79462;SPS30;68931;47.286;18.756;2024-03-23T02:29:39;0.00;0.00;0.00;0.00;;;;23.00;1.00;
79462;SPS30;68931;47.286;18.756;2024-03-23T02:30:10;0.00;0.00;0.00;0.00;;;;22.33;1.00;
79462;SPS30;68931;47.286;18.756;2024-03-23T02:30:41;0.00;0.00;0.00;0.00;;;;21.33;1.00;
79462;SPS30;68931;47.286;18.756;2024-03-23T02:31:12;0.00;0.00;0.00;0.00;;;;21.00;1.00;
79462;SPS30;68931;47.286;18.756;2024-03-23T02:31:43;0.00;0.00;0.00;0.00;;;;21.00;1.00;
79462;SPS30;68931;47.286;18.756;2024-03-23T02:32:14;0.00;0.00;0.00;0.00;;;;21.00;1.00;
79462;SPS30;68931;47.286;18.756;2024-03-23T02:32:45;0.00;0.00;0.00;0.00;;;;21.67;1.00;
79462;SPS30;68931;47.286;18.756;2024-03-23T02:33:16;0.00;0.00;0.00;0.00;;;;22.00;1.00;
79462;SPS30;68931;47.286;18.756;2024-03-23T02:33:47;0.00;0.00;0.00;0.00;;;;22.33;1.00;
79462;SPS30;68931;47.286;18.756;2024-03-23T02:34:18;0.00;0.00;0.00;0.00;;;;23.00;1.00;
79462;SPS30;68931;47.286;18.756;2024-03-23T02:34:49;0.00;0.00;0.00;0.00;;;;23.67;1.00;
79462;SPS30;68931;47.286;18.756;2024-03-23T02:35:20;0.00;0.00;0.00;0.00;;;;24.67;1.00;
79462;SPS30;68931;47.286;18.756;2024-03-23T02:35:50;0.00;0.00;0.00;0.00;;;;26.00;1.00;
79462;SPS30;68931;47.286;18.756;2024-03-23T02:36:28;0.00;0.00;0.00;0.00;;;;27.33;1.00;
79462;SPS30;68931;47.286;18.756;2024-03-23T02:37:01;0.00;0.00;0.00;0.00;;;;31.00;1.00;
79462;SPS30;68931;47.286;18.756;2024-03-23T02:37:32;0.00;0.00;0.00;0.00;;;;33.00;1.00;
79462;SPS30;68931;47.286;18.756;2024-03-23T02:38:03;0.00;0.00;0.00;0.00;;;;33.67;1.00;
79462;SPS30;68931;47.286;18.756;2024-03-23T02:38:34;0.00;0.00;0.00;0.00;;;;34.67;1.00;
79462;SPS30;68931;47.286;18.756;2024-03-23T02:39:05;0.00;0.00;0.00;0.00;;;;35.00;1.00;
79462;SPS30;68931;47.286;18.756;2024-03-23T02:39:36;0.00;0.00;0.00;0.00;;;;35.00;1.00;
79462;SPS30;68931;47.286;18.756;2024-03-23T02:40:07;0.00;0.00;0.00;0.00;;;;35.00;1.00;
79462;SPS30;68931;47.286;18.756;2024-03-23T02:40:38;0.00;0.00;0.00;0.00;;;;35.33;1.00;
79462;SPS30;68931;47.286;18.756;2024-03-23T02:41:09;0.00;0.00;0.00;0.00;;;;37.33;1.00;
79462;SPS30;68931;47.286;18.756;2024-03-23T02:41:40;0.00;0.00;0.00;0.00;;;;41.67;1.00;
79462;SPS30;68931;47.286;18.756;2024-03-23T02:42:11;0.00;0.00;0.00;0.00;;;;43.67;1.00;
79462;SPS30;68931;47.286;18.756;2024-03-23T02:42:42;0.00;0.00;0.00;0.00;;;;47.00;1.00;
79462;SPS30;68931;47.286;18.756;2024-03-23T02:43:13;0.00;0.00;0.00;0.00;;;;51.00;1.00;
79462;SPS30;68931;47.286;18.756;2024-03-23T02:43:44;0.00;0.00;0.00;0.00;;;;59.00;1.00;
79462;SPS30;68931;47.286;18.756;2024-03-23T02:44:15;0.00;0.00;0.00;0.00;;;;68.00;1.00;
79462;SPS30;68931;47.286;18.756;2024-03-23T02:44:48;0.00;0.00;0.00;0.00;;;;69.67;1.00;
79462;SPS30;68931;47.286;18.756;2024-03-23T02:45:20;0.00;0.00;0.00;0.00;;;;76.00;1.00;
79462;SPS30;68931;47.286;18.756;2024-03-23T02:45:51;0.00;0.00;0.00;0.00;;;;91.67;1.00;
79462;SPS30;68931;47.286;18.756;2024-03-23T02:46:22;0.00;0.00;0.00;0.00;;;;104.33;1.00;
79462;SPS30;68931;47.286;18.756;2024-03-23T02:46:53;0.00;0.00;0.00;0.00;;;;99.33;1.00;
79462;SPS30;68931;47.286;18.756;2024-03-23T02:47:24;0.00;0.00;0.00;0.00;;;;91.33;1.00;
79462;SPS30;68931;47.286;18.756;2024-03-23T02:47:55;0.00;0.00;0.00;0.00;;;;92.33;1.00;
79462;SPS30;68931;47.286;18.756;2024-03-23T02:48:26;0.00;0.00;0.00;0.00;;;;84.67;1.00;
79462;SPS30;68931;47.286;18.756;2024-03-23T02:48:58;0.00;0.00;0.00;0.00;;;;86.67;1.00;
79462;SPS30;68931;47.286;18.756;2024-03-23T02:49:28;0.00;0.00;0.00;0.00;;;;79.67;1.00;
79462;SPS30;68931;47.286;18.756;2024-03-23T02:49:59;0.00;0.00;0.00;0.00;;;;78.67;1.00;
79462;SPS30;68931;47.286;18.756;2024-03-23T02:50:30;0.00;0.00;0.00;0.00;;;;83.00;1.00;
79462;SPS30;68931;47.286;18.756;2024-03-23T02:51:01;0.00;0.00;0.00;0.00;;;;84.67;1.00;
79462;SPS30;68931;47.286;18.756;2024-03-23T02:51:32;0.00;0.00;0.00;0.00;;;;87.33;1.00;
79462;SPS30;68931;47.286;18.756;2024-03-23T02:52:03;0.00;0.00;0.00;0.00;;;;91.00;1.00;
79462;SPS30;68931;47.286;18.756;2024-03-23T02:52:34;0.00;0.00;0.00;0.00;;;;98.00;1.00;
79462;SPS30;68931;47.286;18.756;2024-03-23T02:53:05;0.00;0.00;0.00;0.00;;;;110.33;1.00;
79462;SPS30;68931;47.286;18.756;2024-03-23T02:53:36;0.00;0.00;0.00;0.00;;;;98.00;1.00;
79462;SPS30;68931;47.286;18.756;2024-03-23T02:54:07;0.00;0.00;0.00;0.00;;;;87.67;1.00;
79462;SPS30;68931;47.286;18.756;2024-03-23T02:54:38;0.00;0.00;0.00;0.00;;;;76.67;1.00;
79462;SPS30;68931;47.286;18.756;2024-03-23T02:55:09;0.00;0.00;0.00;0.00;;;;67.67;1.00;
79462;SPS30;68931;47.286;18.756;2024-03-23T02:55:40;0.00;0.00;0.00;0.00;;;;57.67;1.00;
79462;SPS30;68931;47.286;18.756;2024-03-23T02:56:11;0.00;0.00;0.00;0.00;;;;52.00;1.00;
79462;SPS30;68931;47.286;18.756;2024-03-23T02:56:46;0.00;0.00;0.00;0.00;;;;43.00;1.00;
79462;SPS30;68931;47.286;18.756;2024-03-23T02:57:17;0.00;0.00;0.00;0.00;;;;40.00;1.00;
79462;SPS30;68931;47.286;18.756;2024-03-23T02:57:48;0.00;0.00;0.00;0.00;;;;38.00;1.00;
79462;SPS30;68931;47.286;18.756;2024-03-23T02:58:18;0.00;0.00;0.00;0.00;;;;37.33;1.00;
79462;SPS30;68931;47.286;18.756;2024-03-23T02:58:49;0.00;0.00;0.00;0.00;;;;34.33;1.00;
79462;SPS30;68931;47.286;18.756;2024-03-23T02:59:20;0.00;0.00;0.00;0.00;;;;32.00;1.00;
79462;SPS30;68931;47.286;18.756;2024-03-23T02:59:54;0.00;0.00;0.00;0.00;;;;30.33;1.00;
79462;SPS30;68931;47.286;18.756;2024-03-23T03:00:25;0.00;0.00;0.00;0.00;;;;28.33;1.00;
79462;SPS30;68931;47.286;18.756;2024-03-23T03:00:56;0.00;0.00;0.00;0.00;;;;28.00;1.00;
79462;SPS30;68931;47.286;18.756;2024-03-23T03:01:27;0.00;0.00;0.00;0.00;;;;29.00;1.00;
79462;SPS30;68931;47.286;18.756;2024-03-23T03:01:58;0.00;0.00;0.00;0.00;;;;26.67;1.00;
79462;SPS30;68931;47.286;18.756;2024-03-23T03:02:30;0.00;0.00;0.00;0.00;;;;26.00;1.00;
79462;SPS30;68931;47.286;18.756;2024-03-23T03:03:01;0.00;0.00;0.00;0.00;;;;26.00;1.00;
79462;SPS30;68931;47.286;18.756;2024-03-23T03:03:33;0.00;0.00;0.00;0.00;;;;25.33;1.00;
79462;SPS30;68931;47.286;18.756;2024-03-23T03:04:04;0.00;0.00;0.00;0.00;;;;25.33;1.00;
79462;SPS30;68931;47.286;18.756;2024-03-23T03:04:35;0.00;0.00;0.00;0.00;;;;25.33;1.00;
79462;SPS30;68931;47.286;18.756;2024-03-23T03:05:06;0.00;0.00;0.00;0.00;;;;25.67;1.00;
79462;SPS30;68931;47.286;18.756;2024-03-23T03:05:39;0.00;0.00;0.00;0.00;;;;27.00;1.00;
79462;SPS30;68931;47.286;18.756;2024-03-23T03:06:10;0.00;0.00;0.00;0.00;;;;25.33;1.00;
79462;SPS30;68931;47.286;18.756;2024-03-23T03:06:40;0.00;0.00;0.00;0.00;;;;24.67;1.00;
79462;SPS30;68931;47.286;18.756;2024-03-23T03:07:11;0.00;0.00;0.00;0.00;;;;25.00;1.00;
79462;SPS30;68931;47.286;18.756;2024-03-23T03:07:42;0.00;0.00;0.00;0.00;;;;26.00;1.00;
79462;SPS30;68931;47.286;18.756;2024-03-23T03:08:13;0.00;0.00;0.00;0.00;;;;26.00;1.00;
79462;SPS30;68931;47.286;18.756;2024-03-23T03:08:44;0.00;0.00;0.00;0.00;;;;26.00;1.00;
79462;SPS30;68931;47.286;18.756;2024-03-23T03:09:15;0.00;0.00;0.00;0.00;;;;26.33;1.00;
79462;SPS30;68931;47.286;18.756;2024-03-23T03:09:46;0.00;0.00;0.00;0.00;;;;27.00;1.00;
79462;SPS30;68931;47.286;18.756;2024-03-23T03:10:16;0.00;0.00;0.00;0.00;;;;27.33;1.00;
79462;SPS30;68931;47.286;18.756;2024-03-23T03:10:47;0.00;0.00;0.00;0.00;;;;28.00;1.00;
79462;SPS30;68931;47.286;18.756;2024-03-23T03:11:18;0.00;0.00;0.00;0.00;;;;28.00;1.00;
79462;SPS30;68931;47.286;18.756;2024-03-23T03:11:49;0.00;0.00;0.00;0.00;;;;28.67;1.00;
79462;SPS30;68931;47.286;18.756;2024-03-23T03:12:20;0.00;0.00;0.00;0.00;;;;29.00;1.00;
79462;SPS30;68931;47.286;18.756;2024-03-23T03:12:51;0.00;0.00;0.00;0.00;;;;29.00;1.00;
79462;SPS30;68931;47.286;18.756;2024-03-23T03:13:22;0.00;0.00;0.00;0.00;;;;30.00;1.00;
79462;SPS30;68931;47.286;18.756;2024-03-23T03:13:52;0.00;0.00;0.00;0.00;;;;30.67;1.00;
79462;SPS30;68931;47.286;18.756;2024-03-23T03:14:23;0.00;0.00;0.00;0.00;;;;31.67;1.00;
79462;SPS30;68931;47.286;18.756;2024-03-23T03:14:54;0.00;0.00;0.00;0.00;;;;32.33;1.00;
79462;SPS30;68931;47.286;18.756;2024-03-23T03:15:25;0.00;0.00;0.00;0.00;;;;33.00;1.00;